createdAt,value
2019-03-01T00:01:19.670Z,9.50
2019-03-01T00:04:09.726Z,9.60
2019-03-01T00:07:14.693Z,9.40
2019-03-01T00:10:13.812Z,9.30
2019-03-01T00:13:15.936Z,9.40
2019-03-01T00:16:11.800Z,9.50
2019-03-01T00:19:16.885Z,9.60
2019-03-01T00:22:25.025Z,9.50
2019-03-01T00:25:21.381Z,9.50
2019-03-01T00:28:17.530Z,9.60
2019-03-01T00:31:32.844Z,9.50
2019-03-01T00:34:46.946Z,9.50
2019-03-01T00:37:45.462Z,9.50
2019-03-01T00:40:50.364Z,9.50
2019-03-01T00:43:56.703Z,9.50
2019-03-01T00:46:43.711Z,9.60
2019-03-01T00:49:32.094Z,9.50
2019-03-01T00:52:19.356Z,9.50
2019-03-01T00:55:10.932Z,9.40
2019-03-01T00:57:58.099Z,9.30
2019-03-01T01:00:48.075Z,9.40
2019-03-01T01:03:34.993Z,9.20
2019-03-01T01:06:22.256Z,9.20
2019-03-01T01:09:09.397Z,9.10
2019-03-01T01:11:56.490Z,8.90
2019-03-01T01:14:43.524Z,9.00
2019-03-01T01:17:30.470Z,8.90
2019-03-01T01:20:17.420Z,9.00
2019-03-01T01:23:04.696Z,8.80
2019-03-01T01:25:51.435Z,8.90
2019-03-01T01:28:38.619Z,8.90
2019-03-01T01:31:25.837Z,8.90
2019-03-01T01:34:12.768Z,8.90
2019-03-01T01:37:00.239Z,8.80
2019-03-01T01:39:47.139Z,8.80
2019-03-01T01:42:34.480Z,8.80
2019-03-01T01:45:21.888Z,8.70
2019-03-01T01:48:08.565Z,8.80
2019-03-01T01:50:55.493Z,8.80
2019-03-01T01:53:42.570Z,8.80
2019-03-01T01:56:30.069Z,8.80
2019-03-01T01:59:17.041Z,8.70
2019-03-01T02:02:04.700Z,8.70
2019-03-01T02:04:52.045Z,8.70
2019-03-01T02:07:39.293Z,8.60
2019-03-01T02:10:26.626Z,8.70
2019-03-01T02:13:13.824Z,8.60
2019-03-01T02:16:00.753Z,8.50
2019-03-01T02:18:47.712Z,8.50
2019-03-01T02:21:40.351Z,8.50
2019-03-01T02:24:23.226Z,8.60
2019-03-01T02:27:25.118Z,8.60
2019-03-01T02:30:18.194Z,8.50
2019-03-01T02:33:05.208Z,8.60
2019-03-01T02:35:52.559Z,8.60
2019-03-01T02:38:39.635Z,8.60
2019-03-01T02:41:26.884Z,8.50
2019-03-01T02:44:13.929Z,8.50
2019-03-01T02:47:01.273Z,8.40
2019-03-01T02:49:48.293Z,8.30
2019-03-01T02:52:35.698Z,8.20
2019-03-01T02:55:22.964Z,8.30
2019-03-01T02:58:10.146Z,8.20
2019-03-01T03:00:56.884Z,8.30
2019-03-01T03:03:44.123Z,8.30
2019-03-01T03:06:38.628Z,8.30
2019-03-01T03:09:25.799Z,8.40
2019-03-01T03:12:13.297Z,8.20
2019-03-01T03:15:00.514Z,8.20
2019-03-01T03:17:47.915Z,8.30
2019-03-01T03:20:34.689Z,8.10
2019-03-01T03:23:21.538Z,8.20
2019-03-01T03:26:09.312Z,8.30
2019-03-01T03:28:56.267Z,8.30
2019-03-01T03:31:43.337Z,8.20
2019-03-01T03:34:30.461Z,8.20
2019-03-01T03:37:17.464Z,8.30
2019-03-01T03:40:07.331Z,8.30
2019-03-01T03:42:54.243Z,8.30
2019-03-01T03:45:41.499Z,8.20
2019-03-01T03:48:28.400Z,8.20
2019-03-01T03:51:15.639Z,8.10
2019-03-01T03:54:02.585Z,8.20
2019-03-01T03:56:50.041Z,8.20
2019-03-01T03:59:37.302Z,8.10
2019-03-01T04:02:24.533Z,8.20
2019-03-01T04:05:11.846Z,8.10
2019-03-01T04:07:59.043Z,8.10
2019-03-01T04:10:46.075Z,8.10
2019-03-01T04:13:33.056Z,8.00
2019-03-01T04:16:20.332Z,8.10
2019-03-01T04:19:07.309Z,8.00
2019-03-01T04:21:54.587Z,8.10
2019-03-01T04:24:41.336Z,8.20
2019-03-01T04:27:28.402Z,8.10
2019-03-01T04:30:19.256Z,8.20
2019-03-01T04:33:06.468Z,8.20
2019-03-01T04:35:53.722Z,8.20
2019-03-01T04:38:40.770Z,8.30
2019-03-01T04:41:27.777Z,8.10
2019-03-01T04:44:14.847Z,8.20
2019-03-01T04:47:01.939Z,8.20
2019-03-01T04:49:48.609Z,8.20
2019-03-01T04:52:36.394Z,8.20
2019-03-01T04:55:25.640Z,8.20
2019-03-01T04:58:12.929Z,8.30
2019-03-01T05:01:00.102Z,8.20
2019-03-01T05:03:47.132Z,8.20
2019-03-01T05:06:34.198Z,8.20
2019-03-01T05:09:21.179Z,8.20
2019-03-01T05:12:08.568Z,8.20
2019-03-01T05:14:55.759Z,8.00
2019-03-01T05:17:42.753Z,8.00
2019-03-01T05:20:31.115Z,8.00
2019-03-01T05:23:18.659Z,8.00
2019-03-01T05:26:05.840Z,8.10
2019-03-01T05:28:53.045Z,8.10
2019-03-01T05:31:40.078Z,8.10
2019-03-01T05:34:27.148Z,7.90
2019-03-01T05:37:14.180Z,7.90
2019-03-01T05:40:00.878Z,7.80
2019-03-01T05:42:47.784Z,7.80
2019-03-01T05:45:34.733Z,7.70
2019-03-01T05:48:21.981Z,7.60
2019-03-01T05:51:08.760Z,7.60
2019-03-01T05:53:55.711Z,7.60
2019-03-01T05:56:42.939Z,7.60
2019-03-01T05:59:30.241Z,7.50
2019-03-01T06:02:29.484Z,7.50
2019-03-01T06:05:16.649Z,7.50
2019-03-01T06:08:23.104Z,7.50
2019-03-01T06:11:13.410Z,7.50
2019-03-01T06:14:06.052Z,7.50
2019-03-01T06:17:01.880Z,7.50
2019-03-01T06:19:55.214Z,7.40
2019-03-01T06:22:51.217Z,7.40
2019-03-01T06:25:44.322Z,7.40
2019-03-01T06:28:49.139Z,7.40
2019-03-01T06:31:42.003Z,7.40
2019-03-01T06:34:46.791Z,7.40
2019-03-01T06:37:39.329Z,7.40
2019-03-01T06:40:39.720Z,7.40
2019-03-01T06:43:35.665Z,7.40
2019-03-01T06:46:31.895Z,7.40
2019-03-01T06:49:20.673Z,7.30
2019-03-01T06:52:07.521Z,7.40
2019-03-01T06:54:54.484Z,7.40
2019-03-01T06:57:41.535Z,7.40
2019-03-01T07:00:30.541Z,7.40
2019-03-01T07:03:17.586Z,7.40
2019-03-01T07:06:04.917Z,7.30
2019-03-01T07:08:52.107Z,7.40
2019-03-01T07:11:39.124Z,7.30
2019-03-01T07:14:26.129Z,7.30
2019-03-01T07:17:12.760Z,7.30
2019-03-01T07:19:59.543Z,7.00
2019-03-01T07:22:46.461Z,7.20
2019-03-01T07:25:33.092Z,7.10
2019-03-01T07:28:20.161Z,7.10
2019-03-01T07:31:07.375Z,7.10
2019-03-01T07:33:54.347Z,7.20
2019-03-01T07:36:41.530Z,7.10
2019-03-01T07:39:28.660Z,7.30
2019-03-01T07:42:15.666Z,7.20
2019-03-01T07:45:02.429Z,7.30
2019-03-01T07:47:49.835Z,7.40
2019-03-01T07:50:36.904Z,7.20
2019-03-01T07:53:23.895Z,7.40
2019-03-01T07:56:10.893Z,7.20
2019-03-01T07:59:00.236Z,7.30
2019-03-01T08:01:46.821Z,7.30
2019-03-01T08:04:34.229Z,7.50
2019-03-01T08:07:23.580Z,7.70
2019-03-01T08:10:20.961Z,7.60
2019-03-01T08:13:02.400Z,7.40
2019-03-01T08:15:49.383Z,7.60
2019-03-01T08:18:40.154Z,7.50
2019-03-01T08:21:25.234Z,7.40
2019-03-01T08:24:11.986Z,7.60
2019-03-01T08:26:59.025Z,7.60
2019-03-01T08:29:46.522Z,7.60
2019-03-01T08:32:34.279Z,7.60
2019-03-01T08:35:21.267Z,7.60
2019-03-01T08:38:08.317Z,7.70
2019-03-01T08:40:55.699Z,7.90
2019-03-01T08:43:44.808Z,8.00
2019-03-01T08:46:31.423Z,7.70
2019-03-01T08:49:18.698Z,7.70
2019-03-01T08:52:06.039Z,7.70
2019-03-01T08:54:53.122Z,7.80
2019-03-01T08:57:44.170Z,7.50
2019-03-01T09:00:40.772Z,7.60
2019-03-01T09:03:41.607Z,7.70
2019-03-01T09:06:28.966Z,7.80
2019-03-01T09:09:17.605Z,7.70
2019-03-01T09:12:05.184Z,7.80
2019-03-01T09:14:52.137Z,7.60
2019-03-01T09:17:39.377Z,7.70
2019-03-01T09:20:26.322Z,7.90
2019-03-01T09:23:22.849Z,8.00
2019-03-01T09:26:02.017Z,8.00
2019-03-01T09:28:49.221Z,7.80
2019-03-01T09:31:36.302Z,7.60
2019-03-01T09:34:23.353Z,7.70
2019-03-01T09:37:10.527Z,7.70
2019-03-01T09:40:05.191Z,7.70
2019-03-01T09:42:47.413Z,7.70
2019-03-01T09:45:36.447Z,8.00
2019-03-01T09:48:24.008Z,7.90
2019-03-01T09:51:11.485Z,8.00
2019-03-01T09:53:58.715Z,7.90
2019-03-01T09:56:45.955Z,8.00
2019-03-01T09:59:33.027Z,8.30
2019-03-01T10:02:20.279Z,7.90
2019-03-01T10:05:10.406Z,8.00
2019-03-01T10:07:57.829Z,7.80
2019-03-01T10:10:44.648Z,7.70
2019-03-01T10:16:19.019Z,7.50
2019-03-01T10:19:06.533Z,7.80
2019-03-01T10:21:53.856Z,7.70
2019-03-01T10:24:40.795Z,7.60
2019-03-01T10:27:27.791Z,7.60
2019-03-01T10:30:28.703Z,7.60
2019-03-01T10:33:15.612Z,7.70
2019-03-01T10:36:02.723Z,7.80
2019-03-01T10:38:49.661Z,8.00
2019-03-01T10:41:36.666Z,7.80
2019-03-01T10:44:24.016Z,7.70
2019-03-01T10:47:11.195Z,7.80
2019-03-01T10:49:58.449Z,7.90
2019-03-01T10:52:45.455Z,7.80
2019-03-01T10:55:32.490Z,7.90
2019-03-01T10:58:19.177Z,7.90
2019-03-01T11:01:06.188Z,7.90
2019-03-01T11:03:53.298Z,7.70
2019-03-01T11:06:40.556Z,7.90
2019-03-01T11:09:27.775Z,7.70
2019-03-01T11:12:14.960Z,8.00
2019-03-01T11:15:01.919Z,8.10
2019-03-01T11:17:49.316Z,8.00
2019-03-01T11:20:36.421Z,8.10
2019-03-01T11:23:23.531Z,7.90
2019-03-01T11:26:10.493Z,7.70
2019-03-01T11:28:57.592Z,7.80
2019-03-01T11:31:44.638Z,7.80
2019-03-01T11:34:31.885Z,7.70
2019-03-01T11:37:18.874Z,7.70
2019-03-01T11:40:12.085Z,7.70
2019-03-01T11:42:59.185Z,8.00
2019-03-01T11:45:46.390Z,7.70
2019-03-01T11:48:33.546Z,7.60
2019-03-01T11:51:20.570Z,7.80
2019-03-01T11:54:07.863Z,7.80
2019-03-01T11:56:54.785Z,7.90
2019-03-01T11:59:41.518Z,7.90
2019-03-01T12:02:28.207Z,7.80
2019-03-01T12:05:15.922Z,7.80
2019-03-01T12:08:02.698Z,7.70
2019-03-01T12:10:49.664Z,8.00
2019-03-01T12:13:36.751Z,8.00
2019-03-01T12:16:24.061Z,8.00
2019-03-01T12:19:11.456Z,8.00
2019-03-01T12:21:58.315Z,8.10
2019-03-01T12:24:45.713Z,8.10
2019-03-01T12:27:33.150Z,8.40
2019-03-01T12:30:24.812Z,8.20
2019-03-01T12:33:11.891Z,8.50
2019-03-01T12:35:59.087Z,8.50
2019-03-01T12:38:46.309Z,8.40
2019-03-01T12:41:33.730Z,8.40
2019-03-01T12:44:20.970Z,8.60
2019-03-01T12:47:08.299Z,9.00
2019-03-01T12:49:55.727Z,8.80
2019-03-01T12:52:42.755Z,8.90
2019-03-01T12:55:33.196Z,8.70
2019-03-01T12:58:20.162Z,8.50
2019-03-01T13:01:10.141Z,8.50
2019-03-01T13:03:57.767Z,8.50
2019-03-01T13:06:44.735Z,8.40
2019-03-01T13:09:31.980Z,8.30
2019-03-01T13:12:19.032Z,8.20
2019-03-01T13:15:10.689Z,8.20
2019-03-01T13:17:56.224Z,8.30
2019-03-01T13:20:43.189Z,8.40
2019-03-01T13:23:30.558Z,8.40
2019-03-01T13:26:17.511Z,8.60
2019-03-01T13:29:04.746Z,8.50
2019-03-01T13:31:51.733Z,8.50
2019-03-01T13:34:38.944Z,8.40
2019-03-01T13:37:25.918Z,8.30
2019-03-01T13:40:15.453Z,8.40
2019-03-01T13:43:02.537Z,8.30
2019-03-01T13:45:52.680Z,8.20
2019-03-01T13:48:38.316Z,8.40
2019-03-01T13:51:25.344Z,8.70
2019-03-01T13:54:12.822Z,8.70
2019-03-01T13:56:59.534Z,8.60
2019-03-01T13:59:46.445Z,8.60
2019-03-01T14:02:33.710Z,8.50
2019-03-01T14:05:20.710Z,8.70
2019-03-01T14:08:09.242Z,8.70
2019-03-01T14:10:56.460Z,8.70
2019-03-01T14:13:43.505Z,8.60
2019-03-01T14:16:30.467Z,8.50
2019-03-01T14:19:17.473Z,8.30
2019-03-01T14:22:05.216Z,8.30
2019-03-01T14:24:53.563Z,8.30
2019-03-01T14:27:40.890Z,8.30
2019-03-01T14:30:30.273Z,8.30
2019-03-01T14:33:17.094Z,8.30
2019-03-01T14:36:04.167Z,8.20
2019-03-01T14:38:51.409Z,7.90
2019-03-01T14:41:38.498Z,7.70
2019-03-01T14:44:25.496Z,7.70
2019-03-01T14:47:13.139Z,7.60
2019-03-01T14:50:00.148Z,7.70
2019-03-01T14:52:47.119Z,7.80
2019-03-01T14:55:43.174Z,8.00
2019-03-01T14:58:51.768Z,8.10
2019-03-01T15:01:42.030Z,8.50
2019-03-01T15:04:29.729Z,8.30
2019-03-01T15:07:16.748Z,8.20
2019-03-01T15:10:05.334Z,8.40
2019-03-01T15:12:53.986Z,8.30
2019-03-01T15:15:41.534Z,8.30
2019-03-01T15:18:29.008Z,8.40
2019-03-01T15:21:17.548Z,8.60
2019-03-01T15:24:05.065Z,8.40
2019-03-01T15:26:52.143Z,8.60
2019-03-01T15:29:39.132Z,8.40
2019-03-01T15:32:26.113Z,8.30
2019-03-01T15:35:13.402Z,8.30
2019-03-01T15:38:00.114Z,8.40
2019-03-01T15:40:47.383Z,8.40
2019-03-01T15:43:34.557Z,8.40
2019-03-01T15:46:21.319Z,8.20
2019-03-01T15:49:08.366Z,8.40
2019-03-01T15:51:55.862Z,8.40
2019-03-01T15:54:43.164Z,8.10
2019-03-01T15:57:30.370Z,8.10
2019-03-01T16:00:18.690Z,8.10
2019-03-01T16:03:05.956Z,8.10
2019-03-01T16:05:52.796Z,8.10
2019-03-01T16:08:39.969Z,8.20
2019-03-01T16:11:27.679Z,8.00
2019-03-01T16:14:14.996Z,8.10
2019-03-01T16:17:02.300Z,8.00
2019-03-01T16:19:50.163Z,7.90
2019-03-01T16:22:37.947Z,8.00
2019-03-01T16:25:25.003Z,7.90
2019-03-01T16:28:12.066Z,7.90
2019-03-01T16:30:59.183Z,7.90
2019-03-01T16:33:46.128Z,7.80
2019-03-01T16:36:33.430Z,7.70
2019-03-01T16:39:23.775Z,7.70
2019-03-01T16:42:09.467Z,7.70
2019-03-01T16:44:56.739Z,7.70
2019-03-01T16:47:44.278Z,7.70
2019-03-01T16:50:31.441Z,7.60
2019-03-01T16:53:18.634Z,7.50
2019-03-01T16:56:05.877Z,7.60
2019-03-01T16:58:53.119Z,7.50
2019-03-01T17:01:40.698Z,7.50
2019-03-01T17:04:48.318Z,7.50
2019-03-01T17:07:48.955Z,7.60
2019-03-01T17:10:51.681Z,7.40
2019-03-01T17:13:52.146Z,7.40
2019-03-01T17:16:52.580Z,7.30
2019-03-01T17:19:53.321Z,7.40
2019-03-01T17:22:53.621Z,7.40
2019-03-01T17:25:54.321Z,7.40
2019-03-01T17:28:54.681Z,7.30
2019-03-01T17:31:55.294Z,7.30
2019-03-01T17:34:55.590Z,7.50
2019-03-01T17:37:56.213Z,7.40
2019-03-01T17:40:57.090Z,7.40
2019-03-01T17:43:58.342Z,7.50
2019-03-01T17:46:58.819Z,7.50
2019-03-01T17:49:59.478Z,7.50
2019-03-01T17:53:00.205Z,7.50
2019-03-01T17:56:00.714Z,7.70
2019-03-01T17:59:01.336Z,7.70
2019-03-01T18:02:01.943Z,7.70
2019-03-01T18:05:02.303Z,7.70
2019-03-01T18:08:03.573Z,7.70
2019-03-01T18:11:08.264Z,7.60
2019-03-01T18:14:07.780Z,7.50
2019-03-01T18:17:08.458Z,7.50
2019-03-01T18:20:08.798Z,7.50
2019-03-01T18:23:09.303Z,7.40
2019-03-01T18:26:09.745Z,7.30
2019-03-01T18:29:10.761Z,7.30
2019-03-01T18:32:11.112Z,7.20
2019-03-01T18:35:12.228Z,7.30
2019-03-01T18:38:13.423Z,7.20
2019-03-01T18:41:14.051Z,7.30
2019-03-01T18:44:15.322Z,7.20
2019-03-01T18:47:15.994Z,7.30
2019-03-01T18:50:16.749Z,7.20
2019-03-01T18:53:17.490Z,7.20
2019-03-01T18:56:17.739Z,7.20
2019-03-01T18:59:18.372Z,7.40
2019-03-01T19:02:19.469Z,7.30
2019-03-01T19:05:20.258Z,7.10
2019-03-01T19:08:20.737Z,7.20
2019-03-01T19:11:21.470Z,7.10
2019-03-01T19:14:22.231Z,7.20
2019-03-01T19:17:22.539Z,7.10
2019-03-01T19:20:23.323Z,7.30
2019-03-01T19:23:25.648Z,7.30
2019-03-01T19:26:26.857Z,7.30
2019-03-01T19:29:27.330Z,7.30
2019-03-01T19:32:27.767Z,7.30
2019-03-01T19:35:29.809Z,7.40
2019-03-01T19:38:31.017Z,7.10
2019-03-01T19:41:31.517Z,7.30
2019-03-01T19:44:32.383Z,7.10
2019-03-01T19:47:33.021Z,7.20
2019-03-01T19:50:33.477Z,7.20
2019-03-01T19:53:33.991Z,7.10
2019-03-01T19:56:34.709Z,7.20
2019-03-01T19:59:35.437Z,7.10
2019-03-01T20:02:36.370Z,7.20
2019-03-01T20:05:37.438Z,7.30
2019-03-01T20:08:37.899Z,7.40
2019-03-01T20:11:38.233Z,7.40
2019-03-01T20:14:38.826Z,7.40
2019-03-01T20:17:44.371Z,7.40
2019-03-01T20:20:41.627Z,7.30
2019-03-01T20:23:42.094Z,7.40
2019-03-01T20:26:42.407Z,7.40
2019-03-01T20:29:43.485Z,7.20
2019-03-01T20:32:47.462Z,7.30
2019-03-01T20:35:46.925Z,7.20
2019-03-01T20:38:36.999Z,7.20
2019-03-01T20:41:46.625Z,7.30
2019-03-01T20:44:35.808Z,7.10
2019-03-01T20:47:44.778Z,7.10
2019-03-01T20:50:47.685Z,7.00
2019-03-01T20:53:36.709Z,6.90
2019-03-01T20:56:47.867Z,7.00
2019-03-01T20:59:50.574Z,7.10
2019-03-01T21:02:50.344Z,7.20
2019-03-01T21:05:52.404Z,7.10
2019-03-01T21:08:54.347Z,7.10
2019-03-01T21:11:57.772Z,7.00
2019-03-01T21:14:58.676Z,7.10
2019-03-01T21:18:00.695Z,7.20
2019-03-01T21:21:01.482Z,7.20
2019-03-01T21:24:01.990Z,6.80
2019-03-01T21:27:02.601Z,6.90
2019-03-01T21:30:03.249Z,7.10
2019-03-01T21:33:04.110Z,6.90
2019-03-01T21:36:04.659Z,7.00
2019-03-01T21:39:05.514Z,7.00
2019-03-01T21:42:06.643Z,6.80
2019-03-01T21:45:07.175Z,6.80
2019-03-01T21:48:08.027Z,6.70
2019-03-01T21:51:09.033Z,6.60
2019-03-01T21:54:12.553Z,6.60
2019-03-01T21:57:12.634Z,6.60
2019-03-01T22:00:13.082Z,6.60
2019-03-01T22:03:13.390Z,6.60
2019-03-01T22:06:13.810Z,6.60
2019-03-01T22:09:14.181Z,6.80
2019-03-01T22:12:14.803Z,6.70
2019-03-01T22:15:15.380Z,6.80
2019-03-01T22:18:15.974Z,6.60
2019-03-01T22:21:20.260Z,6.60
2019-03-01T22:24:19.103Z,6.60
2019-03-01T22:27:21.591Z,6.70
2019-03-01T22:30:23.119Z,6.80
2019-03-01T22:33:24.724Z,6.60
2019-03-01T22:36:25.181Z,6.60
2019-03-01T22:39:25.667Z,6.50
2019-03-01T22:42:26.300Z,6.40
2019-03-01T22:45:26.988Z,6.60
2019-03-01T22:48:27.552Z,6.60
2019-03-01T22:51:28.510Z,6.70
2019-03-01T22:54:29.341Z,6.70
2019-03-01T22:57:29.744Z,6.70
2019-03-01T23:00:49.692Z,6.60
2019-03-01T23:03:51.593Z,6.40
2019-03-01T23:06:52.990Z,6.60
2019-03-01T23:09:53.231Z,6.50
2019-03-01T23:12:53.716Z,6.50
2019-03-01T23:15:54.268Z,6.50
2019-03-01T23:18:56.920Z,6.60
2019-03-01T23:21:58.198Z,6.60
2019-03-01T23:24:58.641Z,6.60
2019-03-01T23:27:59.473Z,6.70
2019-03-01T23:31:00.480Z,6.70
2019-03-01T23:34:03.712Z,6.80
2019-03-01T23:37:05.405Z,6.80
2019-03-01T23:40:06.538Z,6.80
2019-03-01T23:43:07.116Z,6.70
2019-03-01T23:46:07.820Z,6.80
2019-03-01T23:49:08.594Z,6.90
2019-03-01T23:52:09.045Z,6.90
2019-03-01T23:55:09.415Z,6.80
2019-03-01T23:58:12.605Z,6.80
